Palisades, WA (98845)

5:05 AM PDT on August 21, 2014 (GMT -0700)
Winchester | Change Station
CLOSE
Current Station
Personal Weather Station
Location: Quincy, WA
Elevation: 1350 ft
Nearby Weather Stations

Elev 1350 ft 47.26 °N, 119.72 °W | Updated 12 seconds ago

Clear
Clear
62.7 °F
Feels Like 62.7 °F
N
0.0
Wind Variable Wind from NNW
Gusts 0.0 mph

Today
High -- | Low -- °F
--% Chance of Precip.
Yesterday
High -- | Low -- °F
Precip. -- in
6:03 AM 8:00 PM
Waning Crescent, 14% visible
Pressure 29.87 in
Visibility 10.0 miles
Clouds Clear
Dew Point 51 °F
Humidity 65%
Rainfall -999.00 in
Snow Depth Not available.
UV 0 out of 12
Pollen 4.00 out of 12
Air Quality Not available.
Flu Activity Not available.
METAR KEPH 211153Z AUTO 01004KT 10SM CLR 16/12 A2989 RMK AO2 SLP115 T01560117 10222 20150 53013

More Conditions Fewer Conditions

Pressure 29.87 in
Visibility 10.0 miles
Clouds Clear
Dew Point 51 °F
Humidity 65%
Rainfall -999.00 in
Snow Depth Not available.
UV 0 out of 12
Pollen 4.00 out of 12
Air Quality Not available.
Flu Activity Not available.
METAR KEPH 211153Z AUTO 01004KT 10SM CLR 16/12 A2989 RMK AO2 SLP115 T01560117 10222 20150 53013

More Conditions Fewer Conditions

10-Day Weather Forecast

Almanac

Astronomy

Aug. 21, 2014 Rise Set
Actual Time 6:03 AM PDT 8:00 PM PDT
Civil Twilight 5:30 AM PDT 8:32 PM PDT
Nautical Twilight 4:49 AM PDT 9:13 PM PDT
Astronomical Twilight 4:04 AM PDT 9:58 PM PDT
Moon 2:31 AM PDT 5:38 PM PDT
Length of Visible Light 15h 02m
Length of Day
13h 56m
Tomorrow will be 3m 10s shorter.
Waning Crescent, 14% of the Moon is Illuminated
Today
Waning Crescent
Aug 25
New
Sep 2
First Quarter
Sep 8
Full
Sep 15
Last Quarter

Today's Extremes

State Highs State Lows

Community

WunderPhotos

Upload Photos

1,745,882 photos uploaded!

Nearby

Snow Depth

Station Depth Elevation
Trough 1 in 5300 ft
Grouse Camp 0 in 5380 ft
Sasse Ridge 0 in 4200 ft
Stevens Pass 0 in 4070 ft
Moses Mountain 1 in 5300 ft

Earthquake Activity

City Distance Mag. Time & Date
No recent earthquake activity has been reported nearby.
Minimum magnitude displayed is 2.5.

Coastal Water Temperatures

Place Temperature
No Stations Reporting

Nearby Weather Stations